WZZ3865 LKPR-EBBR
Flight info
| Callsign | WZZ3865 |
|---|---|
| Flight time | 1h 4m |
| Altitude | 34000 |
| Route | BALTU DCT DONAD DCT RAPET Z93 KODUK DCT MARZA DCT TEKTU DCT TESGA DCT UMUPU T880 ADMUM/N0353F240 T880 BATTY |
| Aircraft | A20N/M-SDE2E3FGHIRWXY/LB1 |
Departure
| Time | 2026-05-06 17:54 |
|---|---|
| Airport | Václav Havel Airport Prague (LKPR) |
Arrival
| Time | 2026-05-06 18:59 |
|---|---|
| Airport | Brussels Airport (EBBR) |
| Time | Latitude | Longitude | Altitude | Speed | Heading |
|---|---|---|---|---|---|
| 2026-05-06 17:14 | 50.10796 | 14.26591 | 1173 ft | 0 kts | 32° |
| 2026-05-06 17:37 | 50.10795 | 14.26590 | 1178 ft | 0 kts | 32° |
| 2026-05-06 17:39 | 50.10785 | 14.26580 | 1173 ft | 2 kts | 32° |
| 2026-05-06 17:39 | 50.10771 | 14.26566 | 1176 ft | 2 kts | 31° |
| 2026-05-06 17:39 | 50.10756 | 14.26553 | 1175 ft | 2 kts | 27° |
| 2026-05-06 17:40 | 50.10741 | 14.26543 | 1177 ft | 2 kts | 347° |
| 2026-05-06 17:40 | 50.10732 | 14.26551 | 1178 ft | 1 kts | 305° |
| 2026-05-06 17:45 | 50.10747 | 14.26518 | 1174 ft | 7 kts | 303° |
| 2026-05-06 17:45 | 50.10785 | 14.26427 | 1175 ft | 13 kts | 304° |
| 2026-05-06 17:46 | 50.10826 | 14.26281 | 1173 ft | 13 kts | 251° |
| 2026-05-06 17:46 | 50.10782 | 14.26231 | 1171 ft | 7 kts | 214° |
| 2026-05-06 17:46 | 50.10731 | 14.26177 | 1177 ft | 10 kts | 214° |
| 2026-05-06 17:46 | 50.10658 | 14.26100 | 1177 ft | 16 kts | 213° |
| 2026-05-06 17:47 | 50.10563 | 14.26007 | 1185 ft | 7 kts | 212° |
| 2026-05-06 17:47 | 50.10504 | 14.25983 | 1188 ft | 10 kts | 164° |
| 2026-05-06 17:47 | 50.10464 | 14.26062 | 1190 ft | 11 kts | 128° |
| 2026-05-06 17:47 | 50.10399 | 14.26193 | 1191 ft | 19 kts | 127° |
| 2026-05-06 17:48 | 50.10308 | 14.26378 | 1194 ft | 24 kts | 127° |
| 2026-05-06 17:48 | 50.10202 | 14.26596 | 1200 ft | 25 kts | 127° |
| 2026-05-06 17:48 | 50.10100 | 14.26811 | 1206 ft | 24 kts | 126° |
| 2026-05-06 17:48 | 50.09998 | 14.27019 | 1209 ft | 24 kts | 128° |
| 2026-05-06 17:49 | 50.09894 | 14.27229 | 1211 ft | 25 kts | 127° |
| 2026-05-06 17:49 | 50.09778 | 14.27436 | 1213 ft | 25 kts | 137° |
| 2026-05-06 17:49 | 50.09652 | 14.27624 | 1219 ft | 24 kts | 137° |
| 2026-05-06 17:49 | 50.09537 | 14.27800 | 1226 ft | 22 kts | 134° |
| 2026-05-06 17:50 | 50.09447 | 14.27937 | 1233 ft | 16 kts | 136° |
| 2026-05-06 17:50 | 50.09367 | 14.28059 | 1249 ft | 17 kts | 134° |
| 2026-05-06 17:50 | 50.09283 | 14.28188 | 1249 ft | 16 kts | 136° |
| 2026-05-06 17:50 | 50.09215 | 14.28277 | 1244 ft | 5 kts | 153° |
| 2026-05-06 17:51 | 50.09215 | 14.28278 | 1240 ft | 0 kts | 153° |
| 2026-05-06 17:51 | 50.09212 | 14.28279 | 1240 ft | 1 kts | 157° |
| 2026-05-06 17:51 | 50.09197 | 14.28284 | 1247 ft | 4 kts | 171° |
| 2026-05-06 17:51 | 50.09159 | 14.28274 | 1249 ft | 7 kts | 202° |
| 2026-05-06 17:52 | 50.09143 | 14.28259 | 1241 ft | 0 kts | 214° |
| 2026-05-06 17:52 | 50.09139 | 14.28255 | 1241 ft | 2 kts | 218° |
| 2026-05-06 17:52 | 50.09101 | 14.28185 | 1240 ft | 16 kts | 248° |
| 2026-05-06 17:52 | 50.09136 | 14.27984 | 1246 ft | 17 kts | 304° |
| 2026-05-06 17:53 | 50.09147 | 14.27958 | 1246 ft | 0 kts | 304° |
| 2026-05-06 17:53 | 50.09213 | 14.27814 | 1246 ft | 50 kts | 306° |
| 2026-05-06 17:53 | 50.09574 | 14.27069 | 1215 ft | 119 kts | 307° |
| 2026-05-06 17:54 | 50.10187 | 14.25809 | 1201 ft | 169 kts | 308° |
| 2026-05-06 17:54 | 50.10887 | 14.24327 | 1736 ft | 175 kts | 308° |
| 2026-05-06 17:54 | 50.11642 | 14.22723 | 2321 ft | 189 kts | 307° |
| 2026-05-06 17:54 | 50.12435 | 14.21051 | 3127 ft | 191 kts | 307° |
| 2026-05-06 17:55 | 50.13222 | 14.19413 | 4048 ft | 192 kts | 306° |
| 2026-05-06 17:55 | 50.14035 | 14.17741 | 4954 ft | 194 kts | 305° |
| 2026-05-06 17:55 | 50.14872 | 14.16036 | 5724 ft | 207 kts | 304° |
| 2026-05-06 17:55 | 50.15792 | 14.14156 | 6296 ft | 228 kts | 304° |
| 2026-05-06 17:56 | 50.16798 | 14.12079 | 6884 ft | 250 kts | 304° |
| 2026-05-06 17:56 | 50.17765 | 14.09709 | 7494 ft | 268 kts | 288° |
| 2026-05-06 17:56 | 50.18084 | 14.06823 | 8377 ft | 272 kts | 269° |
| 2026-05-06 17:56 | 50.18059 | 14.03904 | 9478 ft | 273 kts | 265° |
| 2026-05-06 17:57 | 50.17982 | 14.00907 | 10363 ft | 284 kts | 265° |
| 2026-05-06 17:57 | 50.17933 | 13.97697 | 10825 ft | 307 kts | 267° |
| 2026-05-06 17:57 | 50.17934 | 13.94248 | 11331 ft | 326 kts | 268° |
| 2026-05-06 17:57 | 50.17970 | 13.90683 | 12243 ft | 330 kts | 268° |
| 2026-05-06 17:58 | 50.18021 | 13.87095 | 13238 ft | 332 kts | 269° |
| 2026-05-06 17:58 | 50.18073 | 13.83468 | 14095 ft | 337 kts | 269° |
| 2026-05-06 17:58 | 50.18124 | 13.79788 | 14887 ft | 342 kts | 268° |
| 2026-05-06 17:58 | 50.18173 | 13.76054 | 15689 ft | 347 kts | 268° |
| 2026-05-06 17:59 | 50.18220 | 13.72261 | 16487 ft | 351 kts | 268° |
| 2026-05-06 17:59 | 50.18266 | 13.68426 | 17270 ft | 356 kts | 268° |
| 2026-05-06 17:59 | 50.18311 | 13.64536 | 18048 ft | 360 kts | 268° |
| 2026-05-06 17:59 | 50.18356 | 13.60607 | 18749 ft | 364 kts | 268° |
| 2026-05-06 18:00 | 50.18401 | 13.56692 | 19437 ft | 367 kts | 267° |
| 2026-05-06 18:00 | 50.18445 | 13.52697 | 20126 ft | 370 kts | 267° |
| 2026-05-06 18:00 | 50.18485 | 13.48652 | 20808 ft | 374 kts | 267° |
| 2026-05-06 18:00 | 50.18524 | 13.44572 | 21473 ft | 378 kts | 267° |
| 2026-05-06 18:01 | 50.18568 | 13.40456 | 22152 ft | 382 kts | 268° |
| 2026-05-06 18:01 | 50.18591 | 13.36294 | 22810 ft | 385 kts | 265° |
| 2026-05-06 18:01 | 50.18545 | 13.32101 | 23442 ft | 388 kts | 265° |
| 2026-05-06 18:01 | 50.18498 | 13.27877 | 24035 ft | 390 kts | 265° |
| 2026-05-06 18:02 | 50.18465 | 13.23640 | 24639 ft | 392 kts | 265° |
| 2026-05-06 18:02 | 50.18445 | 13.19355 | 25212 ft | 394 kts | 265° |
| 2026-05-06 18:02 | 50.18430 | 13.15067 | 25756 ft | 397 kts | 266° |
| 2026-05-06 18:02 | 50.18417 | 13.10749 | 26298 ft | 399 kts | 266° |
| 2026-05-06 18:03 | 50.18402 | 13.06397 | 26827 ft | 402 kts | 266° |
| 2026-05-06 18:03 | 50.18391 | 13.03508 | 27180 ft | 403 kts | 266° |
| 2026-05-06 18:03 | 50.18374 | 12.99129 | 27675 ft | 405 kts | 265° |
| 2026-05-06 18:03 | 50.18353 | 12.94725 | 28176 ft | 407 kts | 265° |
| 2026-05-06 18:04 | 50.18331 | 12.90300 | 28648 ft | 409 kts | 265° |
| 2026-05-06 18:04 | 50.18308 | 12.85838 | 29093 ft | 412 kts | 265° |
| 2026-05-06 18:04 | 50.18283 | 12.81359 | 29522 ft | 414 kts | 265° |
| 2026-05-06 18:04 | 50.18255 | 12.76861 | 29928 ft | 416 kts | 265° |
| 2026-05-06 18:05 | 50.18225 | 12.72279 | 30279 ft | 418 kts | 265° |
| 2026-05-06 18:05 | 50.18194 | 12.67793 | 30662 ft | 420 kts | 265° |
| 2026-05-06 18:05 | 50.18161 | 12.63222 | 31057 ft | 421 kts | 265° |
| 2026-05-06 18:05 | 50.18127 | 12.58661 | 31551 ft | 419 kts | 265° |
| 2026-05-06 18:06 | 50.18091 | 12.54125 | 32072 ft | 417 kts | 265° |
| 2026-05-06 18:06 | 50.18053 | 12.49613 | 32589 ft | 415 kts | 265° |
| 2026-05-06 18:06 | 50.18014 | 12.45117 | 33083 ft | 413 kts | 265° |
| 2026-05-06 18:06 | 50.17973 | 12.40705 | 33548 ft | 412 kts | 265° |
| 2026-05-06 18:07 | 50.17931 | 12.36249 | 33716 ft | 409 kts | 265° |
| 2026-05-06 18:07 | 50.17886 | 12.31829 | 33742 ft | 408 kts | 265° |
| 2026-05-06 18:07 | 50.17792 | 12.22991 | 33755 ft | 407 kts | 264° |
| 2026-05-06 18:08 | 50.17691 | 12.14152 | 33757 ft | 408 kts | 264° |
| 2026-05-06 18:08 | 50.17583 | 12.05290 | 33769 ft | 413 kts | 264° |
| 2026-05-06 18:09 | 50.17464 | 11.96200 | 33770 ft | 420 kts | 264° |
| 2026-05-06 18:09 | 50.17343 | 11.87094 | 33773 ft | 420 kts | 264° |
| 2026-05-06 18:10 | 50.17213 | 11.78038 | 33773 ft | 420 kts | 264° |
| 2026-05-06 18:10 | 50.17087 | 11.68926 | 33770 ft | 422 kts | 266° |
| 2026-05-06 18:11 | 50.17836 | 11.59764 | 33769 ft | 427 kts | 273° |
| 2026-05-06 18:11 | 50.18780 | 11.50603 | 33768 ft | 428 kts | 274° |
| 2026-05-06 18:12 | 50.19768 | 11.41441 | 33770 ft | 428 kts | 274° |
| 2026-05-06 18:12 | 50.20764 | 11.32269 | 33768 ft | 429 kts | 274° |
| 2026-05-06 18:13 | 50.21751 | 11.23081 | 33771 ft | 429 kts | 274° |
| 2026-05-06 18:13 | 50.22726 | 11.13916 | 33782 ft | 430 kts | 274° |
| 2026-05-06 18:14 | 50.23699 | 11.04697 | 33782 ft | 430 kts | 274° |
| 2026-05-06 18:14 | 50.24661 | 10.95506 | 33783 ft | 431 kts | 274° |
| 2026-05-06 18:15 | 50.25624 | 10.86231 | 33781 ft | 431 kts | 273° |
| 2026-05-06 18:15 | 50.26578 | 10.76978 | 33781 ft | 432 kts | 273° |
| 2026-05-06 18:16 | 50.27526 | 10.67703 | 33778 ft | 432 kts | 273° |
| 2026-05-06 18:16 | 50.28468 | 10.58406 | 33780 ft | 433 kts | 273° |
| 2026-05-06 18:17 | 50.29404 | 10.49099 | 33776 ft | 434 kts | 273° |
| 2026-05-06 18:17 | 50.30336 | 10.39740 | 33775 ft | 435 kts | 273° |
| 2026-05-06 18:18 | 50.31256 | 10.30436 | 33778 ft | 436 kts | 273° |
| 2026-05-06 18:18 | 50.32175 | 10.21062 | 33777 ft | 437 kts | 273° |
| 2026-05-06 18:19 | 50.33090 | 10.11645 | 33774 ft | 437 kts | 273° |
| 2026-05-06 18:19 | 50.33997 | 10.02227 | 33771 ft | 438 kts | 273° |
| 2026-05-06 18:20 | 50.34900 | 9.92771 | 33790 ft | 439 kts | 273° |
| 2026-05-06 18:20 | 50.35792 | 9.83349 | 33783 ft | 441 kts | 273° |
| 2026-05-06 18:21 | 50.36686 | 9.73830 | 33795 ft | 442 kts | 273° |
| 2026-05-06 18:21 | 50.37570 | 9.64307 | 33789 ft | 442 kts | 273° |
| 2026-05-06 18:22 | 50.38450 | 9.54749 | 33789 ft | 443 kts | 273° |
| 2026-05-06 18:22 | 50.39324 | 9.45180 | 33803 ft | 444 kts | 273° |
| 2026-05-06 18:23 | 50.40190 | 9.35587 | 33802 ft | 445 kts | 273° |
| 2026-05-06 18:23 | 50.41050 | 9.25980 | 33805 ft | 445 kts | 273° |
| 2026-05-06 18:24 | 50.41904 | 9.16348 | 33794 ft | 446 kts | 273° |
| 2026-05-06 18:24 | 50.42737 | 9.06840 | 33804 ft | 447 kts | 273° |
| 2026-05-06 18:25 | 50.43584 | 8.97099 | 33804 ft | 447 kts | 274° |
| 2026-05-06 18:25 | 50.44418 | 8.87414 | 33809 ft | 448 kts | 274° |
| 2026-05-06 18:26 | 50.45244 | 8.77721 | 33810 ft | 448 kts | 274° |
| 2026-05-06 18:26 | 50.46060 | 8.68045 | 33810 ft | 448 kts | 274° |
| 2026-05-06 18:27 | 50.46869 | 8.58364 | 33814 ft | 449 kts | 274° |
| 2026-05-06 18:27 | 50.47672 | 8.48658 | 33739 ft | 447 kts | 274° |
| 2026-05-06 18:28 | 50.48468 | 8.38920 | 33821 ft | 449 kts | 274° |
| 2026-05-06 18:28 | 50.49256 | 8.29194 | 33825 ft | 449 kts | 274° |
| 2026-05-06 18:29 | 50.50037 | 8.19444 | 33828 ft | 450 kts | 274° |
| 2026-05-06 18:29 | 50.50808 | 8.09709 | 33800 ft | 448 kts | 274° |
| 2026-05-06 18:30 | 50.51190 | 8.04863 | 33409 ft | 446 kts | 274° |
| 2026-05-06 18:30 | 50.51568 | 8.00023 | 32644 ft | 446 kts | 274° |
| 2026-05-06 18:30 | 50.51944 | 7.95183 | 31735 ft | 448 kts | 274° |
| 2026-05-06 18:30 | 50.52311 | 7.90417 | 30784 ft | 450 kts | 274° |
| 2026-05-06 18:31 | 50.52695 | 7.85433 | 30025 ft | 448 kts | 274° |
| 2026-05-06 18:31 | 50.53060 | 7.80663 | 29359 ft | 442 kts | 274° |
| 2026-05-06 18:31 | 50.53423 | 7.75896 | 28657 ft | 436 kts | 274° |
| 2026-05-06 18:31 | 50.53779 | 7.71190 | 27946 ft | 431 kts | 274° |
| 2026-05-06 18:32 | 50.54128 | 7.66535 | 27262 ft | 427 kts | 275° |
| 2026-05-06 18:32 | 50.54471 | 7.61945 | 26924 ft | 419 kts | 275° |
| 2026-05-06 18:32 | 50.54812 | 7.57367 | 26856 ft | 425 kts | 275° |
| 2026-05-06 18:32 | 50.55155 | 7.52739 | 26856 ft | 426 kts | 275° |
| 2026-05-06 18:33 | 50.55499 | 7.48111 | 26851 ft | 425 kts | 275° |
| 2026-05-06 18:33 | 50.55804 | 7.43482 | 26850 ft | 425 kts | 272° |
| 2026-05-06 18:33 | 50.55885 | 7.38837 | 26857 ft | 425 kts | 268° |
| 2026-05-06 18:33 | 50.55902 | 7.34194 | 26856 ft | 425 kts | 269° |
| 2026-05-06 18:34 | 50.55943 | 7.29538 | 26863 ft | 426 kts | 269° |
| 2026-05-06 18:34 | 50.55987 | 7.24885 | 26856 ft | 426 kts | 269° |
| 2026-05-06 18:34 | 50.56027 | 7.20226 | 26849 ft | 425 kts | 269° |
| 2026-05-06 18:34 | 50.56057 | 7.15587 | 26603 ft | 422 kts | 268° |
| 2026-05-06 18:35 | 50.55997 | 7.11057 | 26101 ft | 419 kts | 266° |
| 2026-05-06 18:35 | 50.55878 | 7.06495 | 25495 ft | 415 kts | 266° |
| 2026-05-06 18:35 | 50.55752 | 7.01974 | 24873 ft | 411 kts | 266° |
| 2026-05-06 18:35 | 50.55634 | 6.97508 | 24262 ft | 407 kts | 267° |
| 2026-05-06 18:36 | 50.55525 | 6.93070 | 23661 ft | 404 kts | 267° |
| 2026-05-06 18:36 | 50.55426 | 6.88980 | 23055 ft | 400 kts | 267° |
| 2026-05-06 18:36 | 50.55321 | 6.84630 | 22404 ft | 396 kts | 267° |
| 2026-05-06 18:36 | 50.55220 | 6.80423 | 21992 ft | 386 kts | 267° |
| 2026-05-06 18:37 | 50.55116 | 6.76156 | 21881 ft | 388 kts | 267° |
| 2026-05-06 18:37 | 50.55046 | 6.73325 | 21867 ft | 394 kts | 267° |
| 2026-05-06 18:37 | 50.55161 | 6.67556 | 21871 ft | 394 kts | 276° |
| 2026-05-06 18:37 | 50.55634 | 6.63306 | 21874 ft | 394 kts | 280° |
| 2026-05-06 18:38 | 50.56210 | 6.59096 | 21872 ft | 394 kts | 285° |
| 2026-05-06 18:38 | 50.57225 | 6.55080 | 21872 ft | 396 kts | 290° |
| 2026-05-06 18:38 | 50.57925 | 6.50956 | 21877 ft | 396 kts | 278° |
| 2026-05-06 18:38 | 50.58285 | 6.46613 | 21853 ft | 394 kts | 276° |
| 2026-05-06 18:39 | 50.58588 | 6.42338 | 21582 ft | 391 kts | 276° |
| 2026-05-06 18:39 | 50.58925 | 6.38188 | 21222 ft | 385 kts | 277° |
| 2026-05-06 18:39 | 50.59223 | 6.34026 | 20638 ft | 381 kts | 275° |
| 2026-05-06 18:40 | 50.59636 | 6.25789 | 19478 ft | 374 kts | 274° |
| 2026-05-06 18:40 | 50.59839 | 6.21716 | 18899 ft | 371 kts | 274° |
| 2026-05-06 18:40 | 50.60048 | 6.17691 | 18342 ft | 367 kts | 274° |
| 2026-05-06 18:40 | 50.60260 | 6.13699 | 17725 ft | 364 kts | 275° |
| 2026-05-06 18:41 | 50.60470 | 6.09752 | 17118 ft | 361 kts | 275° |
| 2026-05-06 18:41 | 50.60678 | 6.05834 | 16496 ft | 358 kts | 275° |
| 2026-05-06 18:41 | 50.60885 | 6.01940 | 15915 ft | 355 kts | 275° |
| 2026-05-06 18:41 | 50.61089 | 5.98071 | 15330 ft | 353 kts | 275° |
| 2026-05-06 18:42 | 50.61287 | 5.94282 | 14749 ft | 351 kts | 276° |
| 2026-05-06 18:42 | 50.61485 | 5.90460 | 14191 ft | 348 kts | 276° |
| 2026-05-06 18:42 | 50.61680 | 5.86674 | 13628 ft | 346 kts | 276° |
| 2026-05-06 18:42 | 50.61872 | 5.82946 | 13020 ft | 344 kts | 276° |
| 2026-05-06 18:43 | 50.62066 | 5.79157 | 12435 ft | 342 kts | 276° |
| 2026-05-06 18:43 | 50.62255 | 5.75444 | 11859 ft | 339 kts | 276° |
| 2026-05-06 18:43 | 50.62442 | 5.71754 | 11303 ft | 337 kts | 276° |
| 2026-05-06 18:43 | 50.62626 | 5.68099 | 11008 ft | 333 kts | 276° |
| 2026-05-06 18:44 | 50.62810 | 5.64432 | 10902 ft | 337 kts | 276° |
| 2026-05-06 18:44 | 50.62994 | 5.60762 | 10711 ft | 334 kts | 276° |
| 2026-05-06 18:44 | 50.63172 | 5.57161 | 10283 ft | 333 kts | 276° |
| 2026-05-06 18:44 | 50.63347 | 5.53589 | 10092 ft | 320 kts | 276° |
| 2026-05-06 18:45 | 50.63514 | 5.50159 | 9963 ft | 307 kts | 276° |
| 2026-05-06 18:45 | 50.63671 | 5.46887 | 9841 ft | 293 kts | 276° |
| 2026-05-06 18:45 | 50.63824 | 5.43726 | 9549 ft | 286 kts | 276° |
| 2026-05-06 18:45 | 50.63924 | 5.41663 | 9288 ft | 284 kts | 276° |
| 2026-05-06 18:46 | 50.64123 | 5.37527 | 8760 ft | 281 kts | 276° |
| 2026-05-06 18:46 | 50.64269 | 5.34474 | 8375 ft | 278 kts | 276° |
| 2026-05-06 18:46 | 50.64412 | 5.31446 | 7983 ft | 276 kts | 276° |
| 2026-05-06 18:46 | 50.64553 | 5.28446 | 7607 ft | 274 kts | 276° |
| 2026-05-06 18:47 | 50.64692 | 5.25467 | 7240 ft | 271 kts | 276° |
| 2026-05-06 18:47 | 50.64829 | 5.22507 | 6878 ft | 269 kts | 276° |
| 2026-05-06 18:47 | 50.64963 | 5.19605 | 6520 ft | 267 kts | 276° |
| 2026-05-06 18:47 | 50.65095 | 5.16705 | 6158 ft | 264 kts | 276° |
| 2026-05-06 18:48 | 50.65226 | 5.13832 | 6007 ft | 264 kts | 276° |
| 2026-05-06 18:48 | 50.65357 | 5.10928 | 5970 ft | 264 kts | 276° |
| 2026-05-06 18:48 | 50.65487 | 5.08041 | 5971 ft | 264 kts | 276° |
| 2026-05-06 18:48 | 50.65615 | 5.05193 | 5970 ft | 265 kts | 276° |
| 2026-05-06 18:49 | 50.65746 | 5.02258 | 5969 ft | 264 kts | 276° |
| 2026-05-06 18:49 | 50.65874 | 4.99364 | 5967 ft | 264 kts | 276° |
| 2026-05-06 18:49 | 50.66002 | 4.96479 | 5969 ft | 264 kts | 276° |
| 2026-05-06 18:49 | 50.66129 | 4.93584 | 5974 ft | 265 kts | 276° |
| 2026-05-06 18:50 | 50.66168 | 4.90717 | 5971 ft | 265 kts | 268° |
| 2026-05-06 18:50 | 50.65947 | 4.87821 | 5969 ft | 266 kts | 264° |
| 2026-05-06 18:50 | 50.65714 | 4.84931 | 5970 ft | 266 kts | 265° |
| 2026-05-06 18:50 | 50.65491 | 4.82042 | 5970 ft | 266 kts | 265° |
| 2026-05-06 18:51 | 50.65269 | 4.79148 | 5970 ft | 266 kts | 265° |
| 2026-05-06 18:51 | 50.65046 | 4.76265 | 5897 ft | 264 kts | 265° |
| 2026-05-06 18:51 | 50.64895 | 4.74326 | 5698 ft | 263 kts | 265° |
| 2026-05-06 18:51 | 50.64670 | 4.71461 | 5323 ft | 263 kts | 265° |
| 2026-05-06 18:52 | 50.64448 | 4.68633 | 4919 ft | 263 kts | 265° |
| 2026-05-06 18:52 | 50.64222 | 4.65783 | 4503 ft | 262 kts | 265° |
| 2026-05-06 18:52 | 50.63998 | 4.62943 | 4098 ft | 262 kts | 265° |
| 2026-05-06 18:52 | 50.63773 | 4.60092 | 3683 ft | 261 kts | 265° |
| 2026-05-06 18:53 | 50.63547 | 4.57257 | 3292 ft | 261 kts | 265° |
| 2026-05-06 18:53 | 50.63321 | 4.54433 | 3030 ft | 257 kts | 265° |
| 2026-05-06 18:53 | 50.63093 | 4.51598 | 2973 ft | 263 kts | 265° |
| 2026-05-06 18:53 | 50.62867 | 4.48757 | 2970 ft | 261 kts | 266° |
| 2026-05-06 18:54 | 50.63068 | 4.45973 | 2970 ft | 257 kts | 293° |
| 2026-05-06 18:54 | 50.64080 | 4.43717 | 2976 ft | 253 kts | 322° |
| 2026-05-06 18:54 | 50.65509 | 4.42591 | 2974 ft | 251 kts | 348° |
| 2026-05-06 18:54 | 50.67246 | 4.42372 | 2976 ft | 251 kts | 358° |
| 2026-05-06 18:55 | 50.68984 | 4.42267 | 2989 ft | 250 kts | 358° |
| 2026-05-06 18:55 | 50.70723 | 4.42168 | 2991 ft | 249 kts | 1° |
| 2026-05-06 18:55 | 50.72396 | 4.42469 | 2989 ft | 235 kts | 12° |
| 2026-05-06 18:55 | 50.73919 | 4.43119 | 2994 ft | 220 kts | 15° |
| 2026-05-06 18:56 | 50.75401 | 4.43715 | 2970 ft | 221 kts | 14° |
| 2026-05-06 18:56 | 50.76883 | 4.44323 | 2689 ft | 219 kts | 14° |
| 2026-05-06 18:56 | 50.78329 | 4.44910 | 2402 ft | 216 kts | 14° |
| 2026-05-06 18:56 | 50.79790 | 4.45504 | 2094 ft | 212 kts | 15° |
| 2026-05-06 18:57 | 50.81190 | 4.46076 | 1810 ft | 209 kts | 15° |
| 2026-05-06 18:57 | 50.82588 | 4.46645 | 1520 ft | 206 kts | 15° |
| 2026-05-06 18:57 | 50.83984 | 4.47214 | 1230 ft | 202 kts | 15° |
| 2026-05-06 18:57 | 50.85286 | 4.47746 | 959 ft | 184 kts | 15° |
| 2026-05-06 18:58 | 50.86447 | 4.48220 | 699 ft | 164 kts | 15° |
| 2026-05-06 18:58 | 50.87490 | 4.48646 | 483 ft | 146 kts | 14° |
| 2026-05-06 18:58 | 50.88423 | 4.49027 | 307 ft | 130 kts | 14° |
| 2026-05-06 18:58 | 50.89252 | 4.49369 | 168 ft | 115 kts | 14° |
| 2026-05-06 18:59 | 50.89758 | 4.49575 | 158 ft | 37 kts | 14° |
| 2026-05-06 18:59 | 50.89985 | 4.49667 | 146 ft | 33 kts | 13° |
| 2026-05-06 18:59 | 50.90215 | 4.49704 | 141 ft | 29 kts | 352° |
| 2026-05-06 18:59 | 50.90326 | 4.49662 | 136 ft | 0 kts | 345° |
| 2026-05-06 19:02 | 50.90331 | 4.49660 | 136 ft | 3 kts | 345° |
| 2026-05-06 19:02 | 50.90369 | 4.49642 | 135 ft | 8 kts | 339° |
| 2026-05-06 19:02 | 50.90425 | 4.49571 | 133 ft | 14 kts | 330° |
| 2026-05-06 19:02 | 50.90442 | 4.49452 | 130 ft | 10 kts | 235° |
| 2026-05-06 19:03 | 50.90419 | 4.49317 | 132 ft | 16 kts | 296° |
| 2026-05-06 19:03 | 50.90526 | 4.49223 | 121 ft | 22 kts | 335° |
| 2026-05-06 19:03 | 50.90646 | 4.49114 | 114 ft | 10 kts | 291° |
| 2026-05-06 19:03 | 50.90625 | 4.49055 | 113 ft | 7 kts | 244° |
| 2026-05-06 19:04 | 50.90604 | 4.48953 | 114 ft | 15 kts | 254° |
| 2026-05-06 19:04 | 50.90555 | 4.48757 | 116 ft | 22 kts | 245° |
| 2026-05-06 19:04 | 50.90489 | 4.48539 | 116 ft | 5 kts | 243° |
| 2026-05-06 19:04 | 50.90480 | 4.48507 | 118 ft | 11 kts | 245° |
| 2026-05-06 19:05 | 50.90434 | 4.48343 | 118 ft | 19 kts | 245° |
| 2026-05-06 19:05 | 50.90355 | 4.48182 | 121 ft | 19 kts | 174° |
| 2026-05-06 19:05 | 50.90363 | 4.48289 | 123 ft | 7 kts | 1° |
| 2026-05-06 19:05 | 50.90397 | 4.48227 | 119 ft | 11 kts | 268° |
| 2026-05-06 19:06 | 50.90360 | 4.48080 | 122 ft | 11 kts | 244° |
| 2026-05-06 19:06 | 50.90322 | 4.47958 | 122 ft | 14 kts | 243° |
| 2026-05-06 19:06 | 50.90283 | 4.47919 | 122 ft | 5 kts | 163° |
| 2026-05-06 19:06 | 50.90232 | 4.47951 | 123 ft | 6 kts | 157° |
| 2026-05-06 19:07 | 50.90231 | 4.47951 | 123 ft | 0 kts | 157° |